Time;durP1;ratioP1;P1;durP2;ratioP2;P2;SDS_P1;SDS_P2;PMS_P1;PMS_P2;Temp;Humidity;BMP_temperature;BMP_pressure;BME280_temperature;BME280_humidity;BME280_pressure;Samples;Min_cycle;Max_cycle;Signal;HPM_P1;HPM_P2
2021/10/16 00:01:20;;;;;;;21.83;6.25;;;;;;;-149.78;100.00;50397.13;5034294;28;20040;-72
2021/10/16 00:03:46;;;;;;;27.02;6.30;;;;;;;-149.78;100.00;50389.31;5072459;28;20029;-72
2021/10/16 00:06:12;;;;;;;22.08;6.10;;;;;;;-149.78;100.00;50408.84;5059533;28;20474;-72
2021/10/16 00:08:38;;;;;;;18.83;5.63;;;;;;;-149.78;100.00;50385.38;5056886;28;20112;-72
2021/10/16 00:11:06;;;;;;;15.32;5.28;;;;;;;-149.78;100.00;50401.03;5060592;28;20036;-72
2021/10/16 00:13:32;;;;;;;19.50;6.40;;;;;;;-149.78;100.00;50404.94;5064607;28;20029;-72
2021/10/16 00:15:59;;;;;;;17.05;5.65;;;;;;;-149.78;100.00;50432.31;5047562;28;20115;-73
2021/10/16 00:18:25;;;;;;;19.77;5.85;;;;;;;-149.78;100.00;50434.28;5053837;28;20120;-72
2021/10/16 00:20:51;;;;;;;16.27;5.22;;;;;;;-149.78;100.00;50428.41;5065060;28;20029;-72
2021/10/16 00:23:17;;;;;;;17.58;4.97;;;;;;;-149.78;100.00;50385.38;5060863;28;20040;-72
2021/10/16 00:25:43;;;;;;;17.92;6.28;;;;;;;-149.78;100.00;50428.41;5037346;28;20036;-71
2021/10/16 00:28:08;;;;;;;12.52;4.75;;;;;;;-149.78;100.00;50432.31;5061032;28;20120;-72
2021/10/16 00:30:34;;;;;;;14.57;5.47;;;;;;;-149.78;100.00;50391.25;5070940;28;20029;-72
2021/10/16 00:33:01;;;;;;;17.90;4.85;;;;;;;-149.78;100.00;50404.94;5038100;28;20052;-73
2021/10/16 00:35:26;;;;;;;16.02;5.35;;;;;;;-149.78;100.00;50455.81;5059100;28;20131;-72
2021/10/16 00:37:52;;;;;;;12.57;5.18;;;;;;;-149.78;100.00;50416.69;5060502;28;20112;-72
2021/10/16 00:40:18;;;;;;;16.77;5.18;;;;;;;-149.78;100.00;50440.16;5058010;28;20066;-72
2021/10/16 00:42:44;;;;;;;25.65;6.22;;;;;;;-149.78;100.00;50412.78;5065124;28;20064;-72
2021/10/16 00:45:10;;;;;;;20.20;6.72;;;;;;;-149.78;100.00;50365.84;5069879;28;20036;-72
2021/10/16 00:47:36;;;;;;;19.65;6.78;;;;;;;-149.78;100.00;50428.41;5053414;28;20028;-72
2021/10/16 00:50:02;;;;;;;17.02;6.78;;;;;;;-149.78;100.00;50436.25;5063236;28;20372;-72
2021/10/16 00:52:27;;;;;;;22.77;8.43;;;;;;;-149.78;100.00;50401.03;5064032;28;20044;-73
2021/10/16 00:54:53;;;;;;;21.73;7.13;;;;;;;-149.78;100.00;50424.50;5066416;28;20040;-73
2021/10/16 00:57:19;;;;;;;18.92;7.40;;;;;;;-149.78;100.00;50401.03;5049767;28;20041;-73
2021/10/16 00:59:47;;;;;;;32.58;8.52;;;;;;;-149.78;100.00;50412.78;5054121;28;20081;-72
2021/10/16 01:02:19;;;;;;;23.50;7.72;;;;;;;-149.78;100.00;50416.69;5061002;28;20116;-72
2021/10/16 01:04:45;;;;;;;21.05;7.47;;;;;;;-149.78;100.00;50377.56;5063527;28;20032;-73
2021/10/16 01:07:12;;;;;;;23.30;8.00;;;;;;;-149.78;100.00;50397.13;5062260;28;20484;-73
2021/10/16 01:09:40;;;;;;;14.50;6.88;;;;;;;-149.78;100.00;50389.31;5051939;28;20051;-73
2021/10/16 01:12:06;;;;;;;19.88;7.70;;;;;;;-149.78;100.00;50420.59;5060289;28;20035;-73
2021/10/16 01:14:32;;;;;;;26.02;6.80;;;;;;;-149.78;100.00;50412.78;5070404;28;20085;-72
2021/10/16 01:17:00;;;;;;;24.27;7.72;;;;;;;-149.78;100.00;50399.09;5057520;28;20037;-73
2021/10/16 01:19:27;;;;;;;21.48;6.63;;;;;;;-149.78;100.00;50428.41;5034067;28;20040;-72
2021/10/16 01:21:55;;;;;;;18.42;7.03;;;;;;;-149.78;100.00;50436.25;5054237;28;20040;-72
2021/10/16 01:24:21;;;;;;;25.30;7.45;;;;;;;-149.78;100.00;50404.94;5052789;28;20429;-72
2021/10/16 01:26:51;;;;;;;28.05;9.45;;;;;;;-149.78;100.00;50426.47;5052107;28;20033;-72
2021/10/16 01:29:25;;;;;;;35.33;9.13;;;;;;;-149.78;100.00;50383.44;5054038;28;20392;-73
2021/10/16 01:31:52;;;;;;;38.70;8.90;;;;;;;-149.78;100.00;50365.84;5065420;28;20043;-72
2021/10/16 01:34:18;;;;;;;29.38;8.32;;;;;;;-149.78;100.00;50377.56;5056566;28;20082;-72
2021/10/16 01:36:49;;;;;;;29.00;7.72;;;;;;;-149.78;100.00;50412.78;5056728;28;20435;-72
2021/10/16 01:39:16;;;;;;;21.25;6.82;;;;;;;-149.78;100.00;50401.03;5063009;28;20443;-72
2021/10/16 01:41:42;;;;;;;26.65;7.07;;;;;;;-149.78;100.00;50393.22;5069456;28;20194;-72
2021/10/16 01:44:08;;;;;;;25.42;7.43;;;;;;;-149.78;100.00;50385.38;5062608;28;20063;-72
2021/10/16 01:46:34;;;;;;;20.33;6.65;;;;;;;-149.78;100.00;50387.34;5068692;28;20040;-71
2021/10/16 01:49:13;;;;;;;18.10;6.85;;;;;;;-149.78;100.00;50381.47;5071337;28;20037;-72
2021/10/16 01:51:40;;;;;;;20.20;6.38;;;;;;;-149.78;100.00;50408.84;5063989;28;20364;-72
2021/10/16 01:54:06;;;;;;;23.13;7.30;;;;;;;-149.78;100.00;50408.84;5061470;28;20036;-72
2021/10/16 01:56:32;;;;;;;22.17;7.25;;;;;;;-149.78;100.00;50440.16;5069908;28;20074;-73
2021/10/16 01:59:18;;;;;;;17.67;6.95;;;;;;;-149.78;100.00;50426.47;5065758;28;20745;-72
2021/10/16 02:01:44;;;;;;;20.58;7.10;;;;;;;-149.78;100.00;50399.09;5064064;28;20029;-72
2021/10/16 02:04:11;;;;;;;14.10;6.45;;;;;;;-149.78;100.00;50436.25;5067323;28;20479;-71
2021/10/16 02:06:37;;;;;;;22.10;7.38;;;;;;;-149.78;100.00;50365.84;5070741;28;21715;-72
2021/10/16 02:09:04;;;;;;;23.48;7.03;;;;;;;-149.78;100.00;50436.25;5060469;28;20192;-72
2021/10/16 02:11:29;;;;;;;16.92;6.55;;;;;;;-149.78;100.00;50444.06;5057359;28;20025;-72
2021/10/16 02:13:56;;;;;;;12.63;5.80;;;;;;;-149.78;100.00;50424.50;5053045;28;21003;-71
2021/10/16 02:16:21;;;;;;;13.60;6.35;;;;;;;-149.78;100.00;50412.78;5069504;28;20028;-72
2021/10/16 02:18:47;;;;;;;18.65;6.43;;;;;;;-149.78;100.00;50416.69;5055672;28;20357;-71
2021/10/16 02:21:12;;;;;;;23.42;6.55;;;;;;;-149.78;100.00;50440.16;5055013;28;20040;-72
2021/10/16 02:23:38;;;;;;;20.75;6.82;;;;;;;-149.78;100.00;50420.59;5059275;28;20484;-71
2021/10/16 02:26:04;;;;;;;20.15;6.63;;;;;;;-149.78;100.00;50430.38;5068524;28;20535;-72
2021/10/16 02:28:30;;;;;;;24.33;7.00;;;;;;;-149.78;100.00;50412.78;5063346;28;20044;-71
2021/10/16 02:30:55;;;;;;;19.55;6.32;;;;;;;-149.78;100.00;50449.94;5073238;28;20029;-72
2021/10/16 02:33:21;;;;;;;20.80;6.15;;;;;;;-149.78;100.00;50440.16;5063143;28;20037;-72
2021/10/16 02:35:46;;;;;;;18.42;6.20;;;;;;;-149.78;100.00;50414.72;5057469;28;20449;-71
2021/10/16 02:38:12;;;;;;;19.48;6.22;;;;;;;-149.78;100.00;50428.41;5050021;28;20044;-72
2021/10/16 02:40:38;;;;;;;19.95;6.85;;;;;;;-149.78;100.00;50440.16;5073728;28;20037;-72
2021/10/16 02:43:04;;;;;;;22.02;7.72;;;;;;;-149.78;100.00;50418.63;5073177;28;20037;-71
2021/10/16 02:45:31;;;;;;;18.20;6.82;;;;;;;-149.78;100.00;50408.84;5061175;28;20643;-72
2021/10/16 02:47:57;;;;;;;27.10;7.20;;;;;;;-149.78;100.00;50438.19;5070706;28;20154;-72
2021/10/16 02:50:23;;;;;;;26.48;7.25;;;;;;;-149.78;100.00;50397.13;5041364;28;20037;-72
2021/10/16 02:52:48;;;;;;;16.45;6.93;;;;;;;-149.78;100.00;50420.59;5059684;28;20044;-72
2021/10/16 02:55:16;;;;;;;20.95;7.93;;;;;;;-149.78;100.00;50428.41;5066694;28;20095;-72
2021/10/16 02:57:43;;;;;;;22.17;7.20;;;;;;;-149.78;100.00;50436.25;5060241;28;20179;-72
2021/10/16 03:00:09;;;;;;;20.60;6.50;;;;;;;-149.78;100.00;50404.94;5063716;28;20048;-72
2021/10/16 03:02:35;;;;;;;21.63;6.68;;;;;;;-149.78;100.00;50397.13;5059864;28;20380;-72
2021/10/16 03:05:02;;;;;;;15.90;5.88;;;;;;;-149.78;100.00;50414.72;5065478;28;20032;-72
2021/10/16 03:07:28;;;;;;;13.07;5.18;;;;;;;-149.78;100.00;50420.59;5059550;28;20112;-72
2021/10/16 03:09:54;;;;;;;20.42;5.03;;;;;;;-149.78;100.00;50432.31;5054585;28;20124;-72
2021/10/16 03:12:20;;;;;;;16.00;4.82;;;;;;;-149.78;100.00;50436.25;5056899;28;20090;-72
2021/10/16 03:14:45;;;;;;;16.23;5.03;;;;;;;-149.78;100.00;50404.94;5071479;28;20494;-72
2021/10/16 03:17:11;;;;;;;18.10;4.25;;;;;;;-149.78;100.00;50424.50;5054251;28;20033;-72
2021/10/16 03:19:37;;;;;;;12.95;4.38;;;;;;;-149.78;100.00;50404.94;5056825;28;20033;-72
2021/10/16 03:22:03;;;;;;;13.63;3.55;;;;;;;-149.78;100.00;50426.47;5059780;28;20039;-72
2021/10/16 03:24:29;;;;;;;13.38;3.65;;;;;;;-149.78;100.00;50408.84;5029302;28;20361;-71
2021/10/16 03:26:54;;;;;;;13.65;4.10;;;;;;;-149.78;100.00;50391.25;5028223;28;20052;-72
2021/10/16 03:29:21;;;;;;;22.23;4.30;;;;;;;-149.78;100.00;50440.16;5055869;28;20446;-72
2021/10/16 03:31:46;;;;;;;11.27;4.40;;;;;;;-149.78;100.00;50447.97;5067134;28;20052;-72
2021/10/16 03:34:12;;;;;;;11.82;3.95;;;;;;;-149.78;100.00;50408.84;5068897;28;20037;-72
2021/10/16 03:36:38;;;;;;;15.02;4.50;;;;;;;-149.78;100.00;50424.50;5067907;28;20036;-72
2021/10/16 03:39:05;;;;;;;12.30;4.25;;;;;;;-149.78;100.00;50444.06;5059363;28;20044;-72
2021/10/16 03:41:31;;;;;;;16.70;4.20;;;;;;;-149.78;100.00;50440.16;5067399;28;20032;-72
2021/10/16 03:43:58;;;;;;;18.48;5.07;;;;;;;-149.78;100.00;50424.50;5034885;28;20464;-72
2021/10/16 03:46:23;;;;;;;20.95;4.88;;;;;;;-149.78;100.00;50463.63;5058675;28;20040;-72
2021/10/16 03:48:49;;;;;;;15.57;5.22;;;;;;;-149.78;100.00;50420.59;5057448;28;20039;-72
2021/10/16 03:51:14;;;;;;;14.77;4.63;;;;;;;-149.78;100.00;50410.81;5065748;28;20108;-72
2021/10/16 03:53:40;;;;;;;14.05;4.78;;;;;;;-149.78;100.00;50404.94;5081699;28;20033;-72
2021/10/16 03:56:06;;;;;;;18.90;5.15;;;;;;;-149.78;100.00;50408.84;5063888;28;20035;-72
2021/10/16 03:58:32;;;;;;;15.00;4.60;;;;;;;-149.78;100.00;50404.94;5050576;28;20028;-72
2021/10/16 04:01:02;;;;;;;13.77;5.30;;;;;;;-149.78;100.00;50422.56;5055333;28;20545;-72
2021/10/16 04:03:29;;;;;;;14.07;5.07;;;;;;;-149.78;100.00;50412.78;5047838;28;20036;-72
2021/10/16 04:05:55;;;;;;;12.35;5.13;;;;;;;-149.78;100.00;50461.66;5063393;28;20032;-71
2021/10/16 04:08:21;;;;;;;14.05;5.35;;;;;;;-149.78;100.00;50385.38;5066577;28;20548;-72
2021/10/16 04:10:47;;;;;;;14.57;5.20;;;;;;;-149.78;100.00;50428.41;5070044;28;20032;-72
2021/10/16 04:13:13;;;;;;;23.30;5.70;;;;;;;-149.78;100.00;50424.50;5056891;28;20040;-72
2021/10/16 04:15:39;;;;;;;19.75;5.72;;;;;;;-149.78;100.00;50455.81;5048647;28;20091;-71
2021/10/16 04:18:05;;;;;;;20.05;5.70;;;;;;;-149.78;100.00;50393.22;5065096;28;20488;-72
2021/10/16 04:20:32;;;;;;;19.38;5.10;;;;;;;-149.78;100.00;50416.69;5052094;28;20029;-72
2021/10/16 04:22:58;;;;;;;15.40;5.18;;;;;;;-149.78;100.00;50414.72;5066126;28;20495;-71
2021/10/16 04:25:24;;;;;;;18.38;6.03;;;;;;;-149.78;100.00;50393.22;5050585;28;20037;-72
2021/10/16 04:27:50;;;;;;;17.10;5.28;;;;;;;-149.78;100.00;50408.84;5056835;28;20047;-71
2021/10/16 04:30:17;;;;;;;14.20;5.70;;;;;;;-149.78;100.00;50436.25;5058709;28;20790;-72
2021/10/16 04:32:42;;;;;;;28.40;6.68;;;;;;;-149.78;100.00;50397.13;5066885;28;20082;-72
2021/10/16 04:35:09;;;;;;;14.30;6.22;;;;;;;-149.78;100.00;50393.22;5070354;28;20546;-72
2021/10/16 04:37:35;;;;;;;19.45;6.38;;;;;;;-149.78;100.00;50471.44;5071633;28;20032;-72
2021/10/16 04:40:20;;;;;;;18.13;6.45;;;;;;;-149.78;100.00;50416.69;5068334;28;20391;-72
2021/10/16 04:42:49;;;;;;;22.75;7.22;;;;;;;-149.78;100.00;50440.16;5056076;28;20060;-71
2021/10/16 04:45:15;;;;;;;17.00;7.50;;;;;;;-149.78;100.00;50436.25;5052044;28;20017;-72
2021/10/16 04:47:40;;;;;;;27.13;7.05;;;;;;;-149.78;100.00;50412.78;5056744;28;20036;-72
2021/10/16 04:50:07;;;;;;;16.83;7.20;;;;;;;-149.78;100.00;50397.13;5070156;28;20055;-72
2021/10/16 04:52:33;;;;;;;21.75;7.22;;;;;;;-149.78;100.00;50428.41;5060261;28;20392;-72
2021/10/16 04:54:59;;;;;;;15.30;7.10;;;;;;;-149.78;100.00;50381.47;5057109;28;20037;-72
2021/10/16 04:57:25;;;;;;;23.02;8.27;;;;;;;-149.78;100.00;50444.06;5067911;28;20498;-72
2021/10/16 04:59:51;;;;;;;20.40;7.55;;;;;;;-149.78;100.00;50408.84;5055719;28;20020;-72
2021/10/16 05:02:16;;;;;;;22.83;8.50;;;;;;;-149.78;100.00;50428.41;5054601;28;20067;-72
2021/10/16 05:04:42;;;;;;;24.75;8.82;;;;;;;-149.78;100.00;50440.16;5066044;28;20375;-72
2021/10/16 05:07:08;;;;;;;15.95;7.22;;;;;;;-149.78;100.00;50440.16;5045932;28;20135;-72
2021/10/16 05:09:34;;;;;;;24.08;8.35;;;;;;;-149.78;100.00;50414.72;5057925;28;20048;-72
2021/10/16 05:11:59;;;;;;;21.67;7.22;;;;;;;-149.78;100.00;50412.78;5050979;28;20053;-72
2021/10/16 05:14:25;;;;;;;25.15;8.82;;;;;;;-149.78;100.00;50424.50;5057039;28;20029;-72
2021/10/16 05:16:50;;;;;;;23.48;8.70;;;;;;;-149.78;100.00;50440.16;5062829;28;20036;-72
2021/10/16 05:19:16;;;;;;;23.25;9.35;;;;;;;-149.78;100.00;50457.75;5058394;28;20404;-71
2021/10/16 05:21:42;;;;;;;25.63;9.35;;;;;;;-149.78;100.00;50451.88;5069328;28;20090;-72
2021/10/16 05:24:07;;;;;;;19.75;9.48;;;;;;;-149.78;100.00;50436.25;5058412;28;20469;-72
2021/10/16 05:26:34;;;;;;;22.77;9.73;;;;;;;-149.78;100.00;50463.63;5054006;28;20056;-72
2021/10/16 05:29:00;;;;;;;21.85;9.60;;;;;;;-149.78;100.00;50404.94;5053735;28;20060;-72
2021/10/16 05:31:26;;;;;;;22.33;9.35;;;;;;;-149.78;100.00;50389.31;5065730;28;20136;-72
2021/10/16 05:33:51;;;;;;;27.67;11.13;;;;;;;-149.78;100.00;50428.41;5062688;28;20036;-73
2021/10/16 05:36:17;;;;;;;20.65;9.45;;;;;;;-149.78;100.00;50416.69;5045330;28;20037;-72
2021/10/16 05:38:43;;;;;;;19.77;9.80;;;;;;;-149.78;100.00;50414.72;5063932;28;20033;-72
2021/10/16 05:41:09;;;;;;;20.52;9.23;;;;;;;-149.78;100.00;50383.44;5059583;28;20120;-72
2021/10/16 05:43:34;;;;;;;19.17;9.32;;;;;;;-149.78;100.00;50404.94;5056197;28;20025;-73
2021/10/16 05:46:01;;;;;;;18.73;9.07;;;;;;;-149.78;100.00;50389.31;5058605;28;20111;-72
2021/10/16 05:48:30;;;;;;;22.73;10.50;;;;;;;-149.78;100.00;50381.47;5068811;28;20043;-72
2021/10/16 05:50:59;;;;;;;25.08;10.52;;;;;;;-149.78;100.00;50408.84;5060139;28;20516;-72
2021/10/16 05:53:25;;;;;;;25.63;10.13;;;;;;;-149.78;100.00;50377.56;5057329;28;20036;-72
2021/10/16 05:55:51;;;;;;;26.70;10.45;;;;;;;-149.78;100.00;50408.84;5064674;28;20039;-72
2021/10/16 05:58:17;;;;;;;23.98;9.55;;;;;;;-149.78;100.00;50416.69;5057961;28;20036;-72
2021/10/16 06:00:43;;;;;;;22.58;10.98;;;;;;;-149.78;100.00;50455.81;5048960;28;20119;-72
2021/10/16 06:03:08;;;;;;;26.83;11.20;;;;;;;-149.78;100.00;50430.38;5062586;28;20033;-72
2021/10/16 06:05:38;;;;;;;24.83;10.45;;;;;;;-149.78;100.00;50397.13;5053865;28;20039;-72
2021/10/16 06:08:04;;;;;;;23.85;11.13;;;;;;;-149.78;100.00;50406.91;5062613;28;20029;-72
2021/10/16 06:10:31;;;;;;;26.40;10.50;;;;;;;-149.78;100.00;50424.50;5065407;28;20472;-72
2021/10/16 06:12:56;;;;;;;23.15;10.68;;;;;;;-149.78;100.00;50440.16;5056973;28;20052;-72
2021/10/16 06:15:22;;;;;;;25.67;11.23;;;;;;;-149.78;100.00;50432.31;5065309;28;20393;-72
2021/10/16 06:17:47;;;;;;;24.63;10.63;;;;;;;-149.78;100.00;50408.84;5055990;28;20677;-72
2021/10/16 06:20:13;;;;;;;22.40;10.30;;;;;;;-149.78;100.00;50436.25;5066008;28;20040;-72
2021/10/16 06:22:39;;;;;;;26.35;11.50;;;;;;;-149.78;100.00;50377.56;5053453;28;20025;-72
2021/10/16 06:25:06;;;;;;;23.58;10.45;;;;;;;-149.78;100.00;50373.66;5054731;28;20088;-72
2021/10/16 06:27:32;;;;;;;20.75;10.27;;;;;;;-149.78;100.00;50420.59;5066561;28;20040;-72
2021/10/16 06:29:58;;;;;;;31.02;11.57;;;;;;;-149.78;100.00;50440.16;5065853;28;20047;-72
2021/10/16 06:32:23;;;;;;;23.15;9.93;;;;;;;-149.78;100.00;50451.88;5058520;28;20057;-72
2021/10/16 06:34:49;;;;;;;19.55;9.32;;;;;;;-149.78;100.00;50451.88;5062322;28;20468;-72
2021/10/16 06:37:15;;;;;;;20.88;9.75;;;;;;;-149.78;100.00;50397.13;5046725;28;20037;-73
2021/10/16 06:39:41;;;;;;;25.10;9.93;;;;;;;-149.78;100.00;50447.97;5062806;28;20028;-72
2021/10/16 06:42:06;;;;;;;20.10;10.02;;;;;;;-149.78;100.00;50428.41;5057257;28;20539;-72
2021/10/16 06:44:32;;;;;;;19.98;9.45;;;;;;;-149.78;100.00;50404.94;5065430;28;20040;-72
2021/10/16 06:46:58;;;;;;;17.25;8.95;;;;;;;-149.78;100.00;50434.28;5068248;28;20060;-72
2021/10/16 06:49:23;;;;;;;21.40;9.80;;;;;;;-149.78;100.00;50436.25;5057623;28;20161;-72
2021/10/16 06:51:49;;;;;;;18.52;9.23;;;;;;;-149.78;100.00;50408.84;5056809;28;20097;-72
2021/10/16 06:54:15;;;;;;;22.30;9.50;;;;;;;-149.78;100.00;50420.59;5056857;28;20086;-72
2021/10/16 06:56:41;;;;;;;21.48;9.05;;;;;;;-149.78;100.00;50389.31;5059640;28;20029;-72
2021/10/16 06:59:06;;;;;;;22.38;9.63;;;;;;;-149.78;100.00;50375.63;5056231;28;20066;-72
2021/10/16 07:01:32;;;;;;;20.75;8.75;;;;;;;-149.78;100.00;50447.97;5057880;28;20032;-72
2021/10/16 07:03:58;;;;;;;20.58;8.90;;;;;;;-149.78;100.00;50389.31;5060152;28;20029;-71
2021/10/16 07:06:23;;;;;;;23.80;9.63;;;;;;;-149.78;100.00;50440.16;5059436;28;20039;-72
2021/10/16 07:08:49;;;;;;;19.73;9.10;;;;;;;-149.78;100.00;50432.31;5055547;28;20028;-72
2021/10/16 07:11:14;;;;;;;24.45;9.88;;;;;;;-149.78;100.00;50408.84;5065333;28;20511;-72
2021/10/16 07:13:40;;;;;;;21.75;10.07;;;;;;;-149.78;100.00;50385.38;5054602;28;20346;-70
2021/10/16 07:16:06;;;;;;;22.73;9.93;;;;;;;-149.78;100.00;50410.81;5053104;28;20489;-72
2021/10/16 07:18:31;;;;;;;25.60;10.18;;;;;;;-149.78;100.00;50367.78;5063344;28;20032;-72
2021/10/16 07:20:58;;;;;;;25.73;9.30;;;;;;;-149.78;100.00;50424.50;5060913;28;20028;-72
2021/10/16 07:23:26;;;;;;;20.65;9.27;;;;;;;-149.78;100.00;50408.84;5058205;28;20036;-72
2021/10/16 07:25:56;;;;;;;21.15;9.60;;;;;;;-149.78;100.00;50410.81;5060452;28;20505;-71
2021/10/16 07:28:23;;;;;;;16.52;7.80;;;;;;;-149.78;100.00;50416.69;5064842;28;20052;-71
2021/10/16 07:30:49;;;;;;;16.85;8.77;;;;;;;-149.78;100.00;50334.53;5056742;28;20042;-71
2021/10/16 07:33:15;;;;;;;19.55;7.78;;;;;;;-149.78;100.00;50414.72;5060694;28;20505;-73
2021/10/16 07:35:42;;;;;;;15.23;7.85;;;;;;;-149.78;100.00;50397.13;5063230;28;20064;-72
2021/10/16 07:38:08;;;;;;;16.13;8.20;;;;;;;-149.78;100.00;50375.63;5058906;28;20048;-74
2021/10/16 07:40:34;;;;;;;14.75;7.82;;;;;;;-149.78;100.00;50401.03;5049318;28;20036;-73
2021/10/16 07:43:00;;;;;;;19.15;8.25;;;;;;;-149.78;100.00;50399.09;5056201;28;20039;-71
2021/10/16 07:45:27;;;;;;;14.05;7.68;;;;;;;-149.78;100.00;50438.19;5053445;28;20036;-71
2021/10/16 07:47:53;;;;;;;16.33;6.88;;;;;;;-149.78;100.00;50397.13;5056346;28;20041;-70
2021/10/16 07:50:19;;;;;;;14.57;7.07;;;;;;;-149.78;100.00;50401.03;5057761;28;20029;-71
2021/10/16 07:52:45;;;;;;;15.57;7.22;;;;;;;-149.78;100.00;50401.03;5054928;28;20033;-72
2021/10/16 07:55:11;;;;;;;14.65;6.53;;;;;;;-149.78;100.00;50404.94;5061582;28;20448;-72
2021/10/16 07:57:36;;;;;;;13.65;6.65;;;;;;;-149.78;100.00;50369.75;5064141;28;20408;-72
2021/10/16 08:00:04;;;;;;;11.05;5.93;;;;;;;-149.78;100.00;50391.25;5042385;28;20032;-71
2021/10/16 08:02:29;;;;;;;11.85;5.75;;;;;;;-149.78;100.00;50354.09;5058584;28;20051;-72
2021/10/16 08:04:59;;;;;;;10.27;5.75;;;;;;;-149.78;100.00;50404.94;5067702;28;20063;-72
2021/10/16 08:07:25;;;;;;;14.90;6.18;;;;;;;-149.78;100.00;50361.91;5055210;28;20036;-71
2021/10/16 08:09:51;;;;;;;9.85;5.13;;;;;;;-149.78;100.00;50346.28;5059931;28;20029;-72
2021/10/16 08:12:17;;;;;;;10.68;5.55;;;;;;;-149.78;100.00;50420.59;5049707;28;20040;-72
2021/10/16 08:14:43;;;;;;;13.35;5.55;;;;;;;-149.78;100.00;50389.31;5063615;28;20036;-73
2021/10/16 08:17:09;;;;;;;13.05;6.00;;;;;;;-149.78;100.00;50379.53;5059153;28;20040;-72
2021/10/16 08:19:35;;;;;;;10.23;6.03;;;;;;;-149.78;100.00;50365.84;5053224;28;20047;-72
2021/10/16 08:22:00;;;;;;;11.13;6.38;;;;;;;-149.78;100.00;50361.91;5066378;28;20037;-72
2021/10/16 08:24:27;;;;;;;14.00;5.57;;;;;;;-149.78;100.00;50342.38;5060400;28;20029;-72
2021/10/16 08:26:53;;;;;;;12.13;5.55;;;;;;;-149.78;100.00;50313.03;5061940;28;20108;-72
2021/10/16 08:29:19;;;;;;;9.48;4.88;;;;;;;-149.78;100.00;50283.69;5061095;28;20562;-73
2021/10/16 08:31:45;;;;;;;9.82;4.55;;;;;;;-149.78;100.00;50256.31;5055066;28;21159;-73
2021/10/16 08:34:11;;;;;;;8.07;4.40;;;;;;;-149.78;76.18;50236.75;5067683;28;20078;-73
2021/10/16 08:36:38;;;;;;;8.43;4.20;;;;;;;-149.78;69.26;50174.19;5054438;28;20037;-72
2021/10/16 08:39:05;;;;;;;10.05;4.53;;;;;;;-149.78;65.46;50189.81;5065992;28;20075;-72
2021/10/16 08:41:33;;;;;;;7.63;4.78;;;;;;;-149.78;66.91;50209.38;5055259;28;20040;-73
2021/10/16 08:43:58;;;;;;;11.85;4.55;;;;;;;-149.78;68.79;50219.16;5055320;28;20045;-72
2021/10/16 08:46:24;;;;;;;7.40;4.07;;;;;;;-149.78;72.46;50268.03;5059876;28;20062;-72
2021/10/16 08:48:51;;;;;;;5.47;3.13;;;;;;;-149.78;76.97;50256.31;5055431;28;20033;-72
2021/10/16 08:51:16;;;;;;;7.80;3.35;;;;;;;-149.78;80.49;50260.22;5053687;28;20116;-72
2021/10/16 08:53:42;;;;;;;8.45;2.97;;;;;;;-149.78;81.70;50248.50;5052051;28;20112;-72
2021/10/16 08:56:08;;;;;;;6.05;2.67;;;;;;;-149.78;83.42;50283.69;5062979;28;20033;-71
2021/10/16 08:58:34;;;;;;;5.35;2.83;;;;;;;-149.78;80.53;50244.59;5056368;28;20117;-72
2021/10/16 09:01:02;;;;;;;4.15;2.58;;;;;;;-149.78;74.16;50215.25;5056947;28;20123;-72
2021/10/16 09:03:33;;;;;;;5.20;2.60;;;;;;;-149.78;65.30;50189.81;5061243;28;20040;-72
2021/10/16 09:06:11;;;;;;;4.28;2.38;;;;;;;-149.78;61.26;50244.59;5054753;28;20379;-71
2021/10/16 09:08:55;;;;;;;7.63;2.30;;;;;;;-149.78;62.83;50226.97;5058132;28;20021;-71
2021/10/16 09:11:38;;;;;;;4.15;2.20;;;;;;;-149.78;68.05;50244.59;5060703;28;20490;-71
2021/10/16 09:14:05;;;;;;;7.22;2.83;;;;;;;-149.78;72.12;50240.66;5057698;28;20072;-72
2021/10/16 09:16:36;;;;;;;4.63;2.40;;;;;;;-149.78;74.74;50248.50;5062639;28;20307;-72
2021/10/16 09:19:10;;;;;;;4.63;2.50;;;;;;;-149.78;79.10;50318.91;5060572;28;20056;-71
2021/10/16 09:21:38;;;;;;;4.63;2.22;;;;;;;-149.78;96.48;50295.44;5067432;28;20376;-71
2021/10/16 09:24:13;;;;;;;4.75;2.20;;;;;;;-149.78;98.89;50275.88;5060083;28;20396;-71
2021/10/16 09:26:42;;;;;;;5.88;2.58;;;;;;;-149.78;92.53;50273.91;5058305;28;20341;-71
2021/10/16 09:29:09;;;;;;;5.82;2.60;;;;;;;-149.78;98.47;50318.91;5062148;28;20033;-71
2021/10/16 09:31:44;;;;;;;4.82;2.25;;;;;;;-149.78;100.00;50314.97;5056240;28;20061;-70
2021/10/16 09:34:10;;;;;;;7.80;2.53;;;;;;;-149.78;100.00;50264.13;5056060;28;20033;-70
2021/10/16 09:36:37;;;;;;;4.95;2.00;;;;;;;-149.78;100.00;50303.25;5067255;28;20032;-70
2021/10/16 09:39:06;;;;;;;4.32;2.35;;;;;;;-149.78;100.00;50314.97;5062637;28;20101;-69
2021/10/16 09:41:38;;;;;;;6.13;2.45;;;;;;;-149.78;100.00;50324.75;5064815;28;20025;-70
2021/10/16 09:44:17;;;;;;;3.72;2.42;;;;;;;-149.78;100.00;50350.19;5055620;28;20158;-69
2021/10/16 09:46:59;;;;;;;6.30;2.97;;;;;;;-149.78;100.00;50326.72;5058967;28;20025;-70
2021/10/16 09:49:46;;;;;;;7.93;2.93;;;;;;;-149.78;100.00;50330.63;5057632;28;20037;-69
2021/10/16 09:52:14;;;;;;;7.30;3.47;;;;;;;-149.78;100.00;50311.06;5064159;28;20033;-69
2021/10/16 09:54:47;;;;;;;7.47;3.47;;;;;;;-149.78;100.00;50326.72;5061329;28;20025;-69
2021/10/16 09:57:19;;;;;;;8.02;3.40;;;;;;;-149.78;100.00;50326.72;5056021;28;20429;-70
2021/10/16 09:59:45;;;;;;;8.10;3.77;;;;;;;-149.78;100.00;50307.16;5057344;28;20029;-70
2021/10/16 10:02:12;;;;;;;8.88;3.85;;;;;;;-149.78;100.00;50295.44;5055129;28;20342;-70
2021/10/16 10:04:41;;;;;;;8.68;4.18;;;;;;;-149.78;100.00;50348.22;5062052;28;20032;-69
2021/10/16 10:07:08;;;;;;;9.50;4.13;;;;;;;-149.78;100.00;50369.75;5057391;28;20033;-69
2021/10/16 10:09:34;;;;;;;8.45;4.10;;;;;;;-149.78;100.00;50303.25;5054886;28;20155;-69
2021/10/16 10:12:01;;;;;;;9.95;5.15;;;;;;;-149.78;100.00;50340.41;5062175;28;20603;-69
2021/10/16 10:14:28;;;;;;;10.48;4.95;;;;;;;-149.78;100.00;50322.81;5066460;28;20243;-69
2021/10/16 10:16:59;;;;;;;7.82;4.22;;;;;;;-149.78;100.00;50338.44;5056199;28;20037;-69
2021/10/16 10:19:25;;;;;;;10.02;4.88;;;;;;;-149.78;100.00;50330.63;5063801;28;20025;-69
2021/10/16 10:21:51;;;;;;;13.63;5.00;;;;;;;-149.78;100.00;50307.16;5053973;28;20048;-69
2021/10/16 10:24:17;;;;;;;7.32;4.75;;;;;;;-149.78;100.00;50301.28;5058085;28;20025;-70
2021/10/16 10:26:46;;;;;;;10.45;5.10;;;;;;;-149.78;100.00;50330.63;5069741;28;20028;-69
2021/10/16 10:29:18;;;;;;;7.22;4.72;;;;;;;-149.78;100.00;50307.16;5062912;28;20503;-69
2021/10/16 10:32:03;;;;;;;10.88;5.15;;;;;;;-149.78;100.00;50330.63;5061848;28;20527;-69
2021/10/16 10:34:36;;;;;;;9.07;4.43;;;;;;;-149.78;100.00;50338.44;5065021;28;20043;-69
2021/10/16 10:37:10;;;;;;;11.98;3.95;;;;;;;-149.78;100.00;50303.25;5059906;28;20025;-69
2021/10/16 10:39:38;;;;;;;8.45;4.35;;;;;;;-149.78;100.00;50295.44;5059429;28;20029;-70
2021/10/16 10:42:13;;;;;;;8.23;4.55;;;;;;;-149.78;100.00;50336.50;5061682;28;20419;-69
2021/10/16 10:44:50;;;;;;;11.48;4.25;;;;;;;-149.78;100.00;50334.53;5054628;28;20491;-69
2021/10/16 10:47:30;;;;;;;9.77;4.43;;;;;;;-149.78;100.00;50299.34;5067423;28;20411;-69
2021/10/16 10:49:59;;;;;;;8.43;3.90;;;;;;;-149.78;100.00;50297.38;5058894;28;20039;-69
2021/10/16 10:52:29;;;;;;;6.88;3.50;;;;;;;-149.78;100.00;50303.25;5062714;28;20388;-69
2021/10/16 10:55:01;;;;;;;7.40;3.40;;;;;;;-149.78;100.00;50299.34;5063454;28;20041;-70
2021/10/16 10:57:43;;;;;;;8.23;3.35;;;;;;;-149.78;100.00;50307.16;5060168;28;20383;-69
2021/10/16 11:00:11;;;;;;;4.85;2.95;;;;;;;-149.78;100.00;50287.59;5059005;28;20044;-69
2021/10/16 11:02:37;;;;;;;5.35;3.22;;;;;;;-149.78;100.00;50291.50;5061017;28;20045;-69